KLOL/LOL METAR and TAF weather

Enter ICAO airport designator
Station Type Date Time Source
KLOL METAR 2019/05/21 21:40 UTC NOAA

KLOL 212140Z AUTO 31030G35KT 2 1/2SM HZ FEW002 OVC085 10/00 A2973 RMK AO2 PK WND 31035/2138 VIS 1V5 LTG DSNT E T01000000


Station Type Date Time Source
KLOL Decoded METAR 2019/05/21 21:40 UTC NOAA

LOVELOCK DERBY FIELD, NV, United States (KLOL) 40-04N 118-34W 1189M
May 21, 2019 - 05:40 PM EDT / 2019.05.21 2140 UTC
Wind: from the NW (310 degrees) at 35 MPH (30 KT) gusting to 40 MPH (35 KT):0
Visibility: 2 1/2 mile(s):0
Sky conditions: overcast
Weather: haze; Lightning observed
Temperature: 50.0 F (10.0 C)
Dew Point: 32.0 F (0.0 C)
Relative Humidity: 49%
Pressure (altimeter): 29.73 in. Hg (1006 hPa)
ob: KLOL 212140Z AUTO 31030G35KT 2 1/2SM HZ FEW002 OVC085 10/00 A2973 RMK AO2 PK WND 31035/2138 VIS 1V5 LTG DSNT E T01000000
cycle: 21

Station Type Date Time Source
KLOL TAF 2010/01/05 05:22 UTC NOAA

TAF KLOL 050522Z 0506/0606 00000KT 1/4SM FZFG VV001
FM052000 VRB03KT 3SM BR OVC002
AMD NOT SKED

Example: see airport list